createdAt,value
2019-03-28T00:01:04.545Z,48.91
2019-03-28T00:03:31.484Z,48.88
2019-03-28T00:05:58.420Z,48.84
2019-03-28T00:08:25.333Z,48.84
2019-03-28T00:10:52.245Z,48.78
2019-03-28T00:13:19.187Z,48.70
2019-03-28T00:15:46.096Z,48.79
2019-03-28T00:18:13.009Z,48.69
2019-03-28T00:20:39.940Z,48.73
2019-03-28T00:23:08.511Z,48.68
2019-03-28T00:25:35.452Z,48.70
2019-03-28T00:28:02.364Z,48.68
2019-03-28T00:30:29.274Z,48.67
2019-03-28T00:32:56.235Z,48.66
2019-03-28T00:35:23.176Z,48.58
2019-03-28T00:37:50.109Z,48.58
2019-03-28T00:40:17.025Z,48.57
2019-03-28T00:42:43.955Z,48.58
2019-03-28T00:45:10.871Z,48.54
2019-03-28T00:47:37.808Z,48.54
2019-03-28T00:50:04.756Z,48.49
2019-03-28T00:52:31.841Z,48.51
2019-03-28T00:54:58.776Z,48.53
2019-03-28T00:57:25.698Z,48.49
2019-03-28T00:59:52.849Z,48.47
2019-03-28T01:02:19.820Z,48.45
2019-03-28T01:04:46.750Z,48.44
2019-03-28T01:07:13.668Z,48.38
2019-03-28T01:09:40.593Z,48.37
2019-03-28T01:12:07.608Z,48.38
2019-03-28T01:14:34.515Z,48.38
2019-03-28T01:17:01.440Z,48.34
2019-03-28T01:19:28.400Z,48.34
2019-03-28T01:21:55.390Z,48.29
2019-03-28T01:24:22.347Z,48.31
2019-03-28T01:26:57.109Z,48.32
2019-03-28T01:29:17.945Z,48.29
2019-03-28T01:31:44.909Z,48.25
2019-03-28T01:34:11.870Z,48.29
2019-03-28T01:36:38.840Z,48.24
2019-03-28T01:39:05.769Z,48.21
2019-03-28T01:41:32.687Z,48.23
2019-03-28T01:43:59.604Z,48.21
2019-03-28T01:46:26.516Z,48.19
2019-03-28T01:48:53.438Z,48.19
2019-03-28T01:51:20.480Z,48.17
2019-03-28T01:53:47.410Z,48.14
2019-03-28T01:56:14.338Z,48.12
2019-03-28T01:58:41.232Z,48.14
2019-03-28T02:01:08.161Z,48.13
2019-03-28T02:03:35.059Z,48.12
2019-03-28T02:06:01.977Z,48.12
2019-03-28T02:08:28.880Z,48.11
2019-03-28T02:10:55.806Z,48.17
2019-03-28T02:13:22.712Z,48.10
2019-03-28T02:15:49.616Z,48.07
2019-03-28T02:18:16.570Z,48.07
2019-03-28T02:20:43.472Z,47.99
2019-03-28T02:23:10.597Z,48.00
2019-03-28T02:25:38.064Z,48.04
2019-03-28T02:28:04.972Z,47.97
2019-03-28T02:30:31.909Z,48.01
2019-03-28T02:32:59.890Z,47.99
2019-03-28T02:35:26.934Z,47.98
2019-03-28T02:37:53.866Z,48.00
2019-03-28T02:40:20.878Z,47.95
2019-03-28T02:42:47.821Z,47.96
2019-03-28T02:45:14.694Z,47.98
2019-03-28T02:47:41.611Z,47.92
2019-03-28T02:50:08.557Z,47.93
2019-03-28T02:52:35.540Z,47.90
2019-03-28T02:55:02.454Z,47.90
2019-03-28T02:57:40.899Z,47.88
2019-03-28T02:59:58.012Z,47.86
2019-03-28T03:02:24.925Z,47.90
2019-03-28T03:04:51.831Z,47.83
2019-03-28T03:07:18.811Z,47.86
2019-03-28T03:09:45.666Z,47.85
2019-03-28T03:12:12.583Z,47.83
2019-03-28T03:14:39.542Z,47.84
2019-03-28T03:17:06.465Z,47.79
2019-03-28T03:19:33.387Z,47.86
2019-03-28T03:22:00.315Z,47.77
2019-03-28T03:24:27.252Z,47.79
2019-03-28T03:26:54.241Z,47.79
2019-03-28T03:29:21.198Z,47.74
2019-03-28T03:31:48.128Z,47.73
2019-03-28T03:34:15.069Z,47.87
2019-03-28T03:36:42.024Z,47.76
2019-03-28T03:39:09.015Z,47.72
2019-03-28T03:41:35.966Z,47.75
2019-03-28T03:44:02.878Z,47.73
2019-03-28T03:46:29.877Z,47.70
2019-03-28T03:48:56.812Z,47.67
2019-03-28T03:51:23.737Z,47.76
2019-03-28T03:53:50.668Z,47.73
2019-03-28T03:56:17.608Z,47.68
2019-03-28T03:58:45.673Z,47.66
2019-03-28T04:01:12.850Z,47.70
2019-03-28T04:03:39.764Z,47.66
2019-03-28T04:06:06.692Z,47.66
2019-03-28T04:08:33.633Z,47.64
2019-03-28T04:11:00.580Z,47.73
2019-03-28T04:13:27.492Z,47.64
2019-03-28T04:15:54.576Z,47.67
2019-03-28T04:18:22.233Z,47.65
2019-03-28T04:20:49.366Z,47.62
2019-03-28T04:23:16.285Z,47.74
2019-03-28T04:25:43.214Z,47.70
2019-03-28T04:28:10.141Z,47.70
2019-03-28T04:30:37.113Z,47.65
2019-03-28T04:33:04.049Z,47.62
2019-03-28T04:35:30.963Z,47.64
2019-03-28T04:37:58.621Z,47.62
2019-03-28T04:40:25.679Z,47.66
2019-03-28T04:42:52.627Z,47.63
2019-03-28T04:45:19.576Z,47.60
2019-03-28T04:47:46.495Z,47.58
2019-03-28T04:50:13.438Z,47.63
2019-03-28T04:52:40.356Z,47.61
2019-03-28T04:55:07.290Z,47.62
2019-03-28T04:57:34.242Z,47.62
2019-03-28T05:00:01.177Z,47.67
2019-03-28T05:02:28.107Z,47.62
2019-03-28T05:04:55.032Z,47.70
2019-03-28T05:07:22.005Z,47.62
2019-03-28T05:09:49.166Z,47.59
2019-03-28T05:12:16.044Z,47.55
2019-03-28T05:14:43.000Z,47.58
2019-03-28T05:17:10.000Z,47.61
2019-03-28T05:19:36.932Z,47.59
2019-03-28T05:22:03.838Z,47.65
2019-03-28T05:24:30.772Z,47.58
2019-03-28T05:26:57.701Z,47.55
2019-03-28T05:29:24.614Z,47.62
2019-03-28T05:31:51.562Z,47.61
2019-03-28T05:34:18.502Z,47.75
2019-03-28T05:36:45.408Z,47.80
2019-03-28T05:39:12.316Z,47.89
2019-03-28T05:41:39.240Z,47.84
2019-03-28T05:44:06.168Z,47.91
2019-03-28T05:46:33.129Z,47.86
2019-03-28T05:49:00.008Z,47.95
2019-03-28T05:51:26.939Z,48.08
2019-03-28T05:53:53.876Z,48.11
2019-03-28T05:56:20.834Z,47.99
2019-03-28T05:58:47.730Z,48.06
2019-03-28T06:01:14.672Z,48.10
2019-03-28T06:03:42.411Z,48.11
2019-03-28T06:06:09.591Z,48.23
2019-03-28T06:08:36.525Z,48.23
2019-03-28T06:11:03.465Z,48.20
2019-03-28T06:13:30.418Z,48.26
2019-03-28T06:15:57.375Z,48.24
2019-03-28T06:18:24.286Z,48.33
2019-03-28T06:20:51.228Z,48.33
2019-03-28T06:23:18.149Z,48.31
2019-03-28T06:25:45.081Z,48.30
2019-03-28T06:28:12.260Z,48.41
2019-03-28T06:30:39.192Z,48.40
2019-03-28T06:33:06.148Z,48.63
2019-03-28T06:35:33.299Z,48.45
2019-03-28T06:38:00.216Z,48.48
2019-03-28T06:40:27.901Z,48.59
2019-03-28T06:42:54.869Z,48.62
2019-03-28T06:45:21.840Z,48.49
2019-03-28T06:47:48.783Z,48.58
2019-03-28T06:50:15.683Z,48.54
2019-03-28T06:52:42.637Z,48.56
2019-03-28T06:55:09.592Z,48.61
2019-03-28T06:57:36.544Z,48.66
2019-03-28T07:00:03.457Z,48.60
2019-03-28T07:02:30.399Z,48.60
2019-03-28T07:04:57.316Z,48.55
2019-03-28T07:07:24.249Z,48.55
2019-03-28T07:09:51.181Z,48.59
2019-03-28T07:12:18.468Z,48.63
2019-03-28T07:14:45.679Z,48.65
2019-03-28T07:17:12.624Z,48.58
2019-03-28T07:19:39.543Z,48.66
2019-03-28T07:22:06.497Z,48.67
2019-03-28T07:24:33.466Z,48.69
2019-03-28T07:27:00.348Z,48.79
2019-03-28T07:29:27.314Z,48.72
2019-03-28T07:31:54.246Z,48.69
2019-03-28T07:34:21.163Z,48.75
2019-03-28T07:36:48.148Z,48.77
2019-03-28T07:39:15.097Z,48.72
2019-03-28T07:41:42.038Z,48.79
2019-03-28T07:44:08.960Z,48.89
2019-03-28T07:46:35.937Z,48.86
2019-03-28T07:49:02.868Z,48.87
2019-03-28T07:51:29.775Z,48.87
2019-03-28T07:53:56.717Z,48.88
2019-03-28T07:56:23.627Z,48.88
2019-03-28T07:58:50.542Z,48.96
2019-03-28T08:01:18.251Z,49.04
2019-03-28T08:03:45.504Z,48.89
2019-03-28T08:06:12.916Z,48.80
2019-03-28T08:08:40.795Z,49.05
2019-03-28T08:11:08.635Z,49.00
2019-03-28T08:13:35.709Z,49.03
2019-03-28T08:16:02.853Z,49.07
2019-03-28T08:18:29.781Z,49.04
2019-03-28T08:20:56.760Z,49.07
2019-03-28T08:23:23.675Z,49.13
2019-03-28T08:25:50.649Z,49.07
2019-03-28T08:28:17.612Z,49.14
2019-03-28T08:30:45.468Z,49.13
2019-03-28T08:33:12.734Z,49.27
2019-03-28T08:35:39.784Z,49.17
2019-03-28T08:38:09.738Z,49.33
2019-03-28T08:40:35.321Z,48.98
2019-03-28T08:43:02.246Z,49.16
2019-03-28T08:45:29.244Z,49.22
2019-03-28T08:47:56.229Z,49.18
2019-03-28T08:50:23.149Z,49.41
2019-03-28T08:52:50.051Z,49.42
2019-03-28T08:55:16.973Z,49.48
2019-03-28T08:57:43.893Z,49.41
2019-03-28T09:00:11.908Z,49.35
2019-03-28T09:02:38.846Z,49.34
2019-03-28T09:05:05.909Z,49.30
2019-03-28T09:07:32.929Z,49.24
2019-03-28T09:09:59.827Z,49.18
2019-03-28T09:12:26.745Z,49.20
2019-03-28T09:17:37.999Z,49.18
2019-03-28T09:20:04.949Z,49.07
2019-03-28T09:22:31.844Z,49.40
2019-03-28T09:24:58.759Z,49.12
2019-03-28T09:27:25.687Z,49.49
2019-03-28T09:29:52.594Z,49.81
2019-03-28T09:32:19.502Z,49.77
2019-03-28T09:34:46.409Z,50.28
2019-03-28T09:37:13.316Z,50.05
2019-03-28T09:39:40.238Z,50.07
2019-03-28T09:42:07.132Z,50.00
2019-03-28T09:44:34.044Z,49.87
2019-03-28T09:47:00.948Z,49.75
2019-03-28T09:49:27.860Z,49.72
2019-03-28T09:51:54.767Z,49.82
2019-03-28T09:54:21.700Z,49.60
2019-03-28T09:56:48.630Z,49.60
2019-03-28T09:59:15.536Z,49.48
2019-03-28T10:01:42.444Z,49.53
2019-03-28T10:04:09.376Z,49.51
2019-03-28T10:06:36.293Z,49.46
2019-03-28T10:09:04.169Z,49.48
2019-03-28T10:11:31.080Z,49.45
2019-03-28T10:13:57.991Z,49.37
2019-03-28T10:16:24.976Z,49.37
2019-03-28T10:18:51.925Z,49.36
2019-03-28T10:21:18.873Z,49.40
2019-03-28T10:23:45.820Z,49.39
2019-03-28T10:26:12.828Z,49.36
2019-03-28T10:28:39.773Z,49.33
2019-03-28T10:31:16.470Z,49.32
2019-03-28T10:33:35.363Z,49.28
2019-03-28T10:36:02.328Z,49.22
2019-03-28T10:38:29.328Z,49.18
2019-03-28T10:40:56.312Z,49.21
2019-03-28T10:43:23.299Z,49.17
2019-03-28T10:45:50.283Z,49.21
2019-03-28T10:48:17.274Z,49.14
2019-03-28T10:50:46.039Z,49.13
2019-03-28T10:53:12.883Z,49.11
2019-03-28T10:55:39.867Z,49.01
2019-03-28T10:58:17.832Z,48.74
2019-03-28T11:00:35.960Z,47.71
2019-03-28T11:03:03.076Z,47.19
2019-03-28T11:05:30.223Z,47.72
2019-03-28T11:07:57.232Z,47.54
2019-03-28T11:10:24.284Z,47.39
2019-03-28T11:12:51.269Z,47.68
2019-03-28T11:15:18.338Z,47.63
2019-03-28T11:17:45.388Z,48.09
2019-03-28T11:20:12.434Z,47.99
2019-03-28T11:22:39.484Z,48.04
2019-03-28T11:25:06.564Z,48.06
2019-03-28T11:27:33.782Z,48.27
2019-03-28T11:30:00.830Z,48.19
2019-03-28T11:32:27.855Z,48.30
2019-03-28T11:34:54.901Z,48.18
2019-03-28T11:37:26.289Z,48.25
2019-03-28T11:39:50.567Z,48.27
2019-03-28T11:42:17.548Z,48.37
2019-03-28T11:44:44.657Z,48.39
2019-03-28T11:47:11.701Z,48.34
2019-03-28T11:49:38.749Z,48.28
2019-03-28T11:52:05.800Z,48.40
2019-03-28T11:54:32.849Z,48.30
2019-03-28T11:56:59.894Z,48.40
2019-03-28T11:59:26.941Z,48.37
2019-03-28T12:01:59.876Z,48.38
2019-03-28T12:04:22.778Z,48.33
2019-03-28T12:06:50.643Z,48.43
2019-03-28T12:09:17.897Z,48.45
2019-03-28T12:11:44.943Z,48.46
2019-03-28T12:14:11.990Z,48.48
2019-03-28T12:16:39.143Z,48.46
2019-03-28T12:19:06.190Z,48.50
2019-03-28T12:21:33.238Z,48.47
2019-03-28T12:24:00.288Z,48.45
2019-03-28T12:26:27.304Z,48.49
2019-03-28T12:28:54.386Z,48.46
2019-03-28T12:31:21.433Z,48.52
2019-03-28T12:33:48.477Z,48.45
2019-03-28T12:36:15.627Z,48.44
2019-03-28T12:38:42.644Z,48.50
2019-03-28T12:41:09.723Z,48.50
2019-03-28T12:43:36.774Z,48.50
2019-03-28T12:46:03.818Z,48.48
2019-03-28T12:48:30.867Z,48.60
2019-03-28T12:50:58.977Z,48.50
2019-03-28T12:53:26.158Z,48.56
2019-03-28T12:55:53.149Z,48.62
2019-03-28T12:58:20.140Z,48.50
2019-03-28T13:00:47.109Z,48.44
2019-03-28T13:03:14.178Z,48.56
2019-03-28T13:05:41.226Z,48.52
2019-03-28T13:08:08.274Z,48.58
2019-03-28T13:10:35.322Z,48.59
2019-03-28T13:13:02.390Z,48.76
2019-03-28T13:15:29.418Z,48.79
2019-03-28T13:17:56.395Z,48.78
2019-03-28T13:20:23.513Z,48.81
2019-03-28T13:22:52.007Z,48.67
2019-03-28T13:25:19.319Z,48.79
2019-03-28T13:27:46.504Z,48.87
2019-03-28T13:30:13.649Z,48.77
2019-03-28T13:32:42.236Z,48.74
2019-03-28T13:35:09.457Z,48.83
2019-03-28T13:37:36.468Z,48.93
2019-03-28T13:40:03.561Z,48.92
2019-03-28T13:42:30.630Z,48.71
2019-03-28T13:44:57.592Z,48.79
2019-03-28T13:47:24.811Z,48.75
2019-03-28T13:49:53.617Z,48.86
2019-03-28T13:52:20.666Z,48.75
2019-03-28T13:54:47.814Z,48.76
2019-03-28T13:57:14.832Z,48.76
2019-03-28T13:59:41.911Z,48.70
2019-03-28T14:02:08.960Z,48.77
2019-03-28T14:04:36.007Z,48.70
2019-03-28T14:07:03.055Z,48.74
2019-03-28T14:09:30.102Z,48.66
2019-03-28T14:11:57.076Z,48.62
2019-03-28T14:14:24.201Z,48.68
2019-03-28T14:16:53.157Z,48.64
2019-03-28T14:19:19.903Z,48.65
2019-03-28T14:21:46.896Z,48.87
2019-03-28T14:24:13.892Z,48.87
2019-03-28T14:26:40.882Z,49.29
2019-03-28T14:29:07.961Z,49.44
2019-03-28T14:31:35.173Z,49.32
2019-03-28T14:34:02.704Z,49.49
2019-03-28T14:36:29.825Z,49.52
2019-03-28T14:38:56.869Z,49.97
2019-03-28T14:41:23.885Z,49.91
2019-03-28T14:43:50.922Z,50.39
2019-03-28T14:46:17.927Z,50.10
2019-03-28T14:48:45.133Z,50.06
2019-03-28T14:51:12.176Z,50.00
2019-03-28T14:53:39.337Z,50.01
2019-03-28T14:56:06.367Z,49.90
2019-03-28T14:58:33.483Z,49.83
2019-03-28T15:01:00.667Z,50.02
2019-03-28T15:03:27.868Z,49.85
2019-03-28T15:05:55.085Z,49.77
2019-03-28T15:08:22.122Z,50.07
2019-03-28T15:10:49.175Z,49.73
2019-03-28T15:13:16.427Z,49.76
2019-03-28T15:15:43.442Z,49.70
2019-03-28T15:18:10.515Z,49.88
2019-03-28T15:20:37.563Z,49.81
2019-03-28T15:23:04.609Z,49.66
2019-03-28T15:25:31.658Z,49.57
2019-03-28T15:27:58.634Z,49.42
2019-03-28T15:30:25.717Z,49.36
2019-03-28T15:32:52.772Z,49.32
2019-03-28T15:35:19.768Z,49.24
2019-03-28T15:37:47.404Z,49.21
2019-03-28T15:40:14.765Z,49.09
2019-03-28T15:42:41.805Z,49.05
2019-03-28T15:45:08.827Z,49.13
2019-03-28T15:47:35.981Z,49.01
2019-03-28T15:50:03.029Z,49.14
2019-03-28T15:52:30.106Z,49.16
2019-03-28T15:54:57.151Z,49.11
2019-03-28T15:57:24.143Z,49.14
2019-03-28T15:59:51.133Z,49.10
2019-03-28T16:02:18.298Z,49.08
2019-03-28T16:04:45.294Z,49.06
2019-03-28T16:07:12.271Z,49.02
2019-03-28T16:09:39.306Z,49.00
2019-03-28T16:12:06.387Z,49.05
2019-03-28T16:14:33.408Z,49.00
2019-03-28T16:17:00.483Z,49.00
2019-03-28T16:19:27.534Z,48.92
2019-03-28T16:21:54.579Z,48.98
2019-03-28T16:24:21.626Z,48.84
2019-03-28T16:26:48.674Z,48.94
2019-03-28T16:29:15.723Z,48.96
2019-03-28T16:31:42.772Z,48.92
2019-03-28T16:34:09.817Z,48.83
2019-03-28T16:36:36.867Z,48.88
2019-03-28T16:39:04.122Z,48.87
2019-03-28T16:41:31.166Z,48.87
2019-03-28T16:43:58.132Z,48.86
2019-03-28T16:46:25.160Z,48.94
2019-03-28T16:48:52.207Z,48.82
2019-03-28T16:51:19.260Z,48.81
2019-03-28T16:53:46.409Z,48.78
2019-03-28T16:56:13.452Z,48.90
2019-03-28T16:58:40.507Z,48.85
2019-03-28T17:01:07.550Z,48.83
2019-03-28T17:03:34.494Z,48.79
2019-03-28T17:06:01.545Z,48.79
2019-03-28T17:08:28.590Z,48.84
2019-03-28T17:10:55.642Z,48.75
2019-03-28T17:13:22.686Z,48.75
2019-03-28T17:15:51.020Z,48.78
2019-03-28T17:18:19.027Z,48.76
2019-03-28T17:20:46.390Z,48.72
2019-03-28T17:23:13.438Z,48.83
2019-03-28T17:25:40.486Z,48.80
2019-03-28T17:28:07.535Z,48.73
2019-03-28T17:30:34.583Z,48.68
2019-03-28T17:33:01.634Z,48.68
2019-03-28T17:35:29.633Z,48.78
2019-03-28T17:37:56.953Z,48.70
2019-03-28T17:40:24.004Z,48.74
2019-03-28T17:42:51.051Z,48.71
2019-03-28T17:45:18.007Z,48.71
2019-03-28T17:47:45.043Z,48.71
2019-03-28T17:50:12.267Z,48.74
2019-03-28T17:52:39.445Z,48.71
2019-03-28T17:55:06.497Z,48.72
2019-03-28T17:57:33.542Z,48.77
2019-03-28T18:00:00.591Z,48.66
2019-03-28T18:02:27.610Z,48.72
2019-03-28T18:05:08.248Z,48.62
2019-03-28T18:07:23.370Z,48.72
2019-03-28T18:09:52.059Z,48.63
2019-03-28T18:12:20.932Z,48.66
2019-03-28T18:14:47.996Z,48.62
2019-03-28T18:17:15.045Z,48.64
2019-03-28T18:19:42.195Z,48.69
2019-03-28T18:22:09.245Z,48.60
2019-03-28T18:24:36.291Z,48.61
2019-03-28T18:27:03.339Z,48.64
2019-03-28T18:29:30.386Z,48.65
2019-03-28T18:31:57.433Z,48.71
2019-03-28T18:34:24.499Z,48.58
2019-03-28T18:36:52.616Z,48.53
2019-03-28T18:39:19.877Z,48.63
2019-03-28T18:41:46.957Z,48.61
2019-03-28T18:44:13.979Z,48.53
2019-03-28T18:46:41.054Z,48.56
2019-03-28T18:49:08.069Z,48.57
2019-03-28T18:51:35.149Z,48.60
2019-03-28T18:54:02.297Z,48.60
2019-03-28T18:56:29.447Z,48.56
2019-03-28T18:58:57.579Z,48.57
2019-03-28T19:01:24.743Z,48.51
2019-03-28T19:03:51.801Z,48.53
2019-03-28T19:06:18.869Z,48.60
2019-03-28T19:08:45.888Z,48.54
2019-03-28T19:11:12.964Z,48.49
2019-03-28T19:13:40.015Z,48.49
2019-03-28T19:16:07.162Z,48.53
2019-03-28T19:18:34.160Z,48.46
2019-03-28T19:21:01.894Z,48.40
2019-03-28T19:23:29.228Z,48.36
2019-03-28T19:25:56.341Z,48.54
2019-03-28T19:28:29.230Z,48.54
2019-03-28T19:30:52.218Z,48.43
2019-03-28T19:33:19.263Z,48.44
2019-03-28T19:35:47.948Z,48.50
2019-03-28T19:38:15.043Z,48.37
2019-03-28T19:40:42.146Z,48.42
2019-03-28T19:43:19.837Z,48.37
2019-03-28T19:45:37.724Z,48.47
2019-03-28T19:48:04.735Z,48.42
2019-03-28T19:50:32.027Z,48.62
2019-03-28T19:52:59.020Z,48.67
2019-03-28T19:55:26.008Z,44.06
2019-03-28T19:57:53.088Z,45.66
2019-03-28T20:00:20.137Z,45.77
2019-03-28T20:02:47.163Z,46.19
2019-03-28T20:05:14.156Z,46.50
2019-03-28T20:07:41.180Z,46.74
2019-03-28T20:10:16.200Z,46.77
2019-03-28T20:12:36.853Z,46.93
2019-03-28T20:15:03.974Z,47.18
2019-03-28T20:17:30.988Z,47.19
2019-03-28T20:19:58.030Z,47.32
2019-03-28T20:22:25.072Z,47.41
2019-03-28T20:24:52.124Z,47.57
2019-03-28T20:27:19.180Z,47.59
2019-03-28T20:29:46.263Z,47.70
2019-03-28T20:32:13.345Z,47.79
2019-03-28T20:34:40.360Z,47.87
2019-03-28T20:37:07.622Z,47.95
2019-03-28T20:39:34.656Z,47.95
2019-03-28T20:42:01.698Z,48.05
2019-03-28T20:44:28.723Z,48.07
2019-03-28T20:46:58.676Z,48.11
2019-03-28T20:49:24.451Z,48.11
2019-03-28T20:51:51.451Z,48.18
2019-03-28T20:54:18.492Z,48.39
2019-03-28T20:56:45.547Z,48.43
2019-03-28T20:59:12.596Z,48.60
2019-03-28T21:01:42.465Z,48.59
2019-03-28T21:04:08.354Z,48.65
2019-03-28T21:06:35.374Z,48.52
2019-03-28T21:09:02.423Z,48.69
2019-03-28T21:11:29.696Z,48.85
2019-03-28T21:13:56.778Z,49.04
2019-03-28T21:16:23.751Z,48.83
2019-03-28T21:18:50.790Z,48.98
2019-03-28T21:21:17.764Z,49.10
2019-03-28T21:23:44.812Z,49.22
2019-03-28T21:26:11.677Z,49.34
2019-03-28T21:28:47.124Z,49.32
2019-03-28T21:31:07.142Z,49.21
2019-03-28T21:33:34.176Z,49.45
2019-03-28T21:36:01.086Z,49.49
2019-03-28T21:38:28.017Z,49.62
2019-03-28T21:40:54.929Z,49.53
2019-03-28T21:43:21.853Z,49.69
2019-03-28T21:45:48.777Z,49.83
2019-03-28T21:48:21.933Z,49.63
2019-03-28T21:50:48.844Z,49.65
2019-03-28T21:53:15.772Z,49.61
2019-03-28T21:55:54.275Z,49.64
2019-03-28T21:58:11.401Z,49.73
2019-03-28T22:00:38.324Z,49.68
2019-03-28T22:03:05.227Z,49.74
2019-03-28T22:05:32.187Z,49.80
2019-03-28T22:07:59.147Z,49.78
2019-03-28T22:10:26.143Z,49.86
2019-03-28T22:12:53.048Z,49.78
2019-03-28T22:15:19.992Z,49.85
2019-03-28T22:17:46.906Z,49.84
2019-03-28T22:20:13.835Z,49.87
2019-03-28T22:22:43.393Z,49.89
2019-03-28T22:25:09.299Z,49.79
2019-03-28T22:27:36.233Z,50.14
2019-03-28T22:30:03.141Z,50.00
2019-03-28T22:32:30.061Z,50.03
2019-03-28T22:34:56.985Z,50.20
2019-03-28T22:37:23.938Z,50.04
2019-03-28T22:39:50.842Z,49.83
2019-03-28T22:42:17.764Z,49.78
2019-03-28T22:44:44.750Z,50.00
2019-03-28T22:47:11.618Z,49.97
2019-03-28T22:49:38.526Z,50.02
2019-03-28T22:52:05.462Z,50.03
2019-03-28T22:54:32.367Z,50.12
2019-03-28T22:56:59.318Z,49.95
2019-03-28T22:59:27.029Z,50.01
2019-03-28T23:01:54.090Z,50.04
2019-03-28T23:04:21.016Z,50.05
2019-03-28T23:06:48.240Z,50.03
2019-03-28T23:09:15.894Z,50.17
2019-03-28T23:11:42.819Z,50.10
2019-03-28T23:14:09.736Z,50.06
2019-03-28T23:16:36.659Z,50.14
2019-03-28T23:19:03.634Z,50.02
2019-03-28T23:21:30.561Z,50.17
2019-03-28T23:23:57.505Z,50.11
2019-03-28T23:26:24.402Z,50.24
2019-03-28T23:28:51.339Z,50.14
2019-03-28T23:31:18.266Z,50.19
2019-03-28T23:33:45.192Z,50.23
2019-03-28T23:36:12.189Z,50.20
2019-03-28T23:38:39.242Z,50.20
2019-03-28T23:41:06.157Z,50.17
2019-03-28T23:43:33.096Z,50.18
2019-03-28T23:46:00.049Z,50.20
2019-03-28T23:48:27.015Z,50.23
2019-03-28T23:50:54.125Z,50.21
2019-03-28T23:53:21.081Z,50.17
2019-03-28T23:55:47.995Z,50.22
2019-03-28T23:58:14.947Z,50.18
